sensor_id;sensor_type;location;lat;lon;timestamp;pressure;altitude;pressure_sealevel;temperature;humidity
15444;BME280;7822;48.146;11.576;2023-03-20T00:00:45;95307.34;;;14.74;61.66
15444;BME280;7822;48.146;11.576;2023-03-20T00:03:15;95304.75;;;14.74;61.88
15444;BME280;7822;48.146;11.576;2023-03-20T00:05:43;95303.91;;;14.74;61.63
15444;BME280;7822;48.146;11.576;2023-03-20T00:08:10;95306.41;;;14.75;61.91
15444;BME280;7822;48.146;11.576;2023-03-20T00:10:40;95309.97;;;14.74;61.64
15444;BME280;7822;48.146;11.576;2023-03-20T00:13:13;95311.63;;;14.75;61.70
15444;BME280;7822;48.146;11.576;2023-03-20T00:15:42;95308.19;;;14.75;62.18
15444;BME280;7822;48.146;11.576;2023-03-20T00:18:13;95302.13;;;14.74;62.07
15444;BME280;7822;48.146;11.576;2023-03-20T00:20:42;95306.41;;;14.75;62.05
15444;BME280;7822;48.146;11.576;2023-03-20T00:23:10;95308.03;;;14.76;62.07
15444;BME280;7822;48.146;11.576;2023-03-20T00:25:39;95314.25;;;14.75;62.06
15444;BME280;7822;48.146;11.576;2023-03-20T00:28:29;95310.78;;;14.75;61.93
15444;BME280;7822;48.146;11.576;2023-03-20T00:31:01;95301.31;;;14.74;62.03
15444;BME280;7822;48.146;11.576;2023-03-20T00:33:30;95310.78;;;14.75;61.82
15444;BME280;7822;48.146;11.576;2023-03-20T00:35:59;95301.19;;;14.75;61.73
15444;BME280;7822;48.146;11.576;2023-03-20T00:38:27;95302.97;;;14.75;62.19
15444;BME280;7822;48.146;11.576;2023-03-20T00:40:54;95300.34;;;14.75;61.82
15444;BME280;7822;48.146;11.576;2023-03-20T00:43:22;95302.97;;;14.75;61.86
15444;BME280;7822;48.146;11.576;2023-03-20T00:45:49;95307.34;;;14.74;62.07
15444;BME280;7822;48.146;11.576;2023-03-20T00:48:17;95304.75;;;14.74;61.94
15444;BME280;7822;48.146;11.576;2023-03-20T00:50:45;95302.13;;;14.74;62.00
15444;BME280;7822;48.146;11.576;2023-03-20T00:53:14;95309.13;;;14.74;62.26
15444;BME280;7822;48.146;11.576;2023-03-20T00:55:41;95302.28;;;14.73;61.99
15444;BME280;7822;48.146;11.576;2023-03-20T00:58:10;95310.78;;;14.75;61.71
15444;BME280;7822;48.146;11.576;2023-03-20T01:00:39;95304.91;;;14.73;61.97
15444;BME280;7822;48.146;11.576;2023-03-20T01:03:14;95307.34;;;14.74;61.97
15444;BME280;7822;48.146;11.576;2023-03-20T01:05:44;95310.78;;;14.75;62.33
15444;BME280;7822;48.146;11.576;2023-03-20T01:08:15;95302.28;;;14.73;61.94
15444;BME280;7822;48.146;11.576;2023-03-20T01:10:44;95301.47;;;14.72;62.12
15444;BME280;7822;48.146;11.576;2023-03-20T01:13:18;95301.47;;;14.72;62.23
15444;BME280;7822;48.146;11.576;2023-03-20T01:15:47;95304.06;;;14.72;61.80
15444;BME280;7822;48.146;11.576;2023-03-20T01:18:16;95299.84;;;14.71;62.17
15444;BME280;7822;48.146;11.576;2023-03-20T01:20:44;95306.69;;;14.72;61.83
15444;BME280;7822;48.146;11.576;2023-03-20T01:23:14;95302.44;;;14.71;62.22
15444;BME280;7822;48.146;11.576;2023-03-20T01:25:42;95309.28;;;14.72;62.04
15444;BME280;7822;48.146;11.576;2023-03-20T01:28:15;95304.06;;;14.72;61.69
15444;BME280;7822;48.146;11.576;2023-03-20T01:30:44;95311.91;;;14.72;62.13
15444;BME280;7822;48.146;11.576;2023-03-20T01:33:13;95312.72;;;14.73;61.99
15444;BME280;7822;48.146;11.576;2023-03-20T01:35:42;95306.84;;;14.71;62.10
15444;BME280;7822;48.146;11.576;2023-03-20T01:38:12;95308.47;;;14.72;62.12
15444;BME280;7822;48.146;11.576;2023-03-20T01:40:48;95308.47;;;14.72;62.06
15444;BME280;7822;48.146;11.576;2023-03-20T01:43:21;95305.06;;;14.71;61.93
15444;BME280;7822;48.146;11.576;2023-03-20T01:45:55;95310.13;;;14.73;62.22
15444;BME280;7822;48.146;11.576;2023-03-20T01:48:35;95312.72;;;14.73;61.80
15444;BME280;7822;48.146;11.576;2023-03-20T01:51:03;95309.28;;;14.72;62.09
15444;BME280;7822;48.146;11.576;2023-03-20T01:53:31;95299.00;;;14.71;62.05
15444;BME280;7822;48.146;11.576;2023-03-20T01:56:00;95300.63;;;14.72;62.04
15444;BME280;7822;48.146;11.576;2023-03-20T01:58:33;95303.25;;;14.72;61.99
15444;BME280;7822;48.146;11.576;2023-03-20T02:01:05;95303.25;;;14.72;62.29
15444;BME280;7822;48.146;11.576;2023-03-20T02:03:34;95305.84;;;14.72;61.85
15444;BME280;7822;48.146;11.576;2023-03-20T02:06:04;95305.84;;;14.72;62.62
15444;BME280;7822;48.146;11.576;2023-03-20T02:08:36;95304.06;;;14.72;61.98
15444;BME280;7822;48.146;11.576;2023-03-20T02:11:10;95305.84;;;14.72;62.15
15444;BME280;7822;48.146;11.576;2023-03-20T02:13:39;95299.84;;;14.71;62.21
15444;BME280;7822;48.146;11.576;2023-03-20T02:16:10;95299.00;;;14.71;62.39
15444;BME280;7822;48.146;11.576;2023-03-20T02:18:39;95300.63;;;14.72;61.81
15444;BME280;7822;48.146;11.576;2023-03-20T02:21:40;95298.19;;;14.70;61.87
15444;BME280;7822;48.146;11.576;2023-03-20T02:27:33;95300.78;;;14.70;62.08
15444;BME280;7822;48.146;11.576;2023-03-20T02:30:33;95298.19;;;14.70;62.18
15444;BME280;7822;48.146;11.576;2023-03-20T02:33:29;95302.56;;;14.70;61.66
15444;BME280;7822;48.146;11.576;2023-03-20T02:36:14;95306.00;;;14.70;62.15
15444;BME280;7822;48.146;11.576;2023-03-20T02:39:05;95311.22;;;14.70;62.17
15444;BME280;7822;48.146;11.576;2023-03-20T02:41:43;95302.56;;;14.70;62.18
15444;BME280;7822;48.146;11.576;2023-03-20T02:44:19;95302.56;;;14.70;62.12
15444;BME280;7822;48.146;11.576;2023-03-20T02:46:53;95305.19;;;14.70;62.31
15444;BME280;7822;48.146;11.576;2023-03-20T02:49:34;95299.97;;;14.70;62.15
15444;BME280;7822;48.146;11.576;2023-03-20T02:52:12;95303.56;;;14.69;62.29
15444;BME280;7822;48.146;11.576;2023-03-20T02:54:51;95305.19;;;14.70;61.94
15444;BME280;7822;48.146;11.576;2023-03-20T02:57:29;95300.94;;;14.69;62.05
15444;BME280;7822;48.146;11.576;2023-03-20T03:00:04;95307.78;;;14.70;62.30
15444;BME280;7822;48.146;11.576;2023-03-20T03:02:37;95303.56;;;14.69;62.38
15444;BME280;7822;48.146;11.576;2023-03-20T03:05:15;95300.13;;;14.68;62.14
15444;BME280;7822;48.146;11.576;2023-03-20T03:07:48;95302.56;;;14.70;62.25
15444;BME280;7822;48.146;11.576;2023-03-20T03:10:21;95306.16;;;14.69;62.10
15444;BME280;7822;48.146;11.576;2023-03-20T03:12:51;95301.75;;;14.69;62.41
15444;BME280;7822;48.146;11.576;2023-03-20T03:15:25;95302.56;;;14.70;62.03
15444;BME280;7822;48.146;11.576;2023-03-20T03:17:56;95299.13;;;14.69;62.36
15444;BME280;7822;48.146;11.576;2023-03-20T03:20:27;95297.34;;;14.70;62.17
15444;BME280;7822;48.146;11.576;2023-03-20T03:22:56;95306.00;;;14.70;62.06
15444;BME280;7822;48.146;11.576;2023-03-20T03:25:27;95302.56;;;14.70;62.33
15444;BME280;7822;48.146;11.576;2023-03-20T03:28:02;95302.56;;;14.70;62.08
15444;BME280;7822;48.146;11.576;2023-03-20T03:30:32;95306.97;;;14.69;62.28
15444;BME280;7822;48.146;11.576;2023-03-20T03:33:11;95305.19;;;14.70;62.31
15444;BME280;7822;48.146;11.576;2023-03-20T03:35:40;95319.06;;;14.70;62.24
15444;BME280;7822;48.146;11.576;2023-03-20T03:38:20;95318.25;;;14.70;62.23
15444;BME280;7822;48.146;11.576;2023-03-20T03:40:59;95324.28;;;14.70;62.27
15444;BME280;7822;48.146;11.576;2023-03-20T03:43:34;95319.22;;;14.69;62.31
15444;BME280;7822;48.146;11.576;2023-03-20T03:46:08;95323.47;;;14.70;62.32
15444;BME280;7822;48.146;11.576;2023-03-20T03:48:40;95320.03;;;14.69;62.20
15444;BME280;7822;48.146;11.576;2023-03-20T03:51:12;95323.47;;;14.70;62.03
15444;BME280;7822;48.146;11.576;2023-03-20T03:53:45;95328.84;;;14.68;61.94
15444;BME280;7822;48.146;11.576;2023-03-20T03:56:19;95329.66;;;14.69;62.46
15444;BME280;7822;48.146;11.576;2023-03-20T03:58:50;95331.28;;;14.70;62.62
15444;BME280;7822;48.146;11.576;2023-03-20T04:01:20;95329.66;;;14.69;62.28
15444;BME280;7822;48.146;11.576;2023-03-20T04:03:52;95332.28;;;14.69;62.31
15444;BME280;7822;48.146;11.576;2023-03-20T04:06:22;95338.28;;;14.69;62.27
15444;BME280;7822;48.146;11.576;2023-03-20T04:08:51;95339.13;;;14.70;62.32
15444;BME280;7822;48.146;11.576;2023-03-20T04:11:23;95341.91;;;14.68;62.30
15444;BME280;7822;48.146;11.576;2023-03-20T04:13:51;95347.94;;;14.69;62.09
15444;BME280;7822;48.146;11.576;2023-03-20T04:16:20;95347.94;;;14.69;62.30
15444;BME280;7822;48.146;11.576;2023-03-20T04:18:48;95350.56;;;14.69;62.28
15444;BME280;7822;48.146;11.576;2023-03-20T04:21:16;95347.13;;;14.68;62.37
15444;BME280;7822;48.146;11.576;2023-03-20T04:23:44;95355.78;;;14.69;62.37
15444;BME280;7822;48.146;11.576;2023-03-20T04:26:12;95356.72;;;14.68;62.35
15444;BME280;7822;48.146;11.576;2023-03-20T04:28:41;95359.34;;;14.68;62.27
15444;BME280;7822;48.146;11.576;2023-03-20T04:31:09;95351.50;;;14.68;62.35
15444;BME280;7822;48.146;11.576;2023-03-20T04:33:37;95362.78;;;14.68;62.27
15444;BME280;7822;48.146;11.576;2023-03-20T04:36:06;95365.41;;;14.68;62.30
15444;BME280;7822;48.146;11.576;2023-03-20T04:38:34;95361.94;;;14.68;62.16
15444;BME280;7822;48.146;11.576;2023-03-20T04:41:02;95360.16;;;14.68;62.44
15444;BME280;7822;48.146;11.576;2023-03-20T04:43:29;95368.84;;;14.69;62.10
15444;BME280;7822;48.146;11.576;2023-03-20T04:45:59;95359.19;;;14.69;62.47
15444;BME280;7822;48.146;11.576;2023-03-20T04:48:27;95362.63;;;14.70;62.20
15444;BME280;7822;48.146;11.576;2023-03-20T04:50:54;95364.41;;;14.69;62.29
15444;BME280;7822;48.146;11.576;2023-03-20T04:53:22;95371.28;;;14.70;62.27
15444;BME280;7822;48.146;11.576;2023-03-20T04:55:52;95366.06;;;14.70;62.28
15444;BME280;7822;48.146;11.576;2023-03-20T04:58:20;95375.69;;;14.70;62.23
15444;BME280;7822;48.146;11.576;2023-03-20T05:00:48;95369.63;;;14.69;62.31
15444;BME280;7822;48.146;11.576;2023-03-20T05:03:18;95372.94;;;14.71;62.36
15444;BME280;7822;48.146;11.576;2023-03-20T05:05:49;95371.97;;;14.72;62.37
15444;BME280;7822;48.146;11.576;2023-03-20T05:08:16;95376.34;;;14.72;62.22
15444;BME280;7822;48.146;11.576;2023-03-20T05:10:44;95373.75;;;14.72;62.22
15444;BME280;7822;48.146;11.576;2023-03-20T05:13:12;95372.78;;;14.73;62.22
15444;BME280;7822;48.146;11.576;2023-03-20T05:15:39;95374.56;;;14.72;62.28
15444;BME280;7822;48.146;11.576;2023-03-20T05:18:07;95377.19;;;14.72;62.31
15444;BME280;7822;48.146;11.576;2023-03-20T05:20:37;95378.84;;;14.73;61.91
15444;BME280;7822;48.146;11.576;2023-03-20T05:23:05;95385.84;;;14.73;62.18
15444;BME280;7822;48.146;11.576;2023-03-20T05:25:32;95383.25;;;14.73;62.27
15444;BME280;7822;48.146;11.576;2023-03-20T05:28:00;95384.06;;;14.73;62.14
15444;BME280;7822;48.146;11.576;2023-03-20T05:30:28;95385.03;;;14.72;62.26
15444;BME280;7822;48.146;11.576;2023-03-20T05:32:56;95389.28;;;14.73;62.03
15444;BME280;7822;48.146;11.576;2023-03-20T05:35:24;95391.06;;;14.73;62.36
15444;BME280;7822;48.146;11.576;2023-03-20T05:37:53;95390.25;;;14.72;62.26
15444;BME280;7822;48.146;11.576;2023-03-20T05:40:20;95391.91;;;14.73;62.42
15444;BME280;7822;48.146;11.576;2023-03-20T05:42:49;95403.31;;;14.72;62.16
15444;BME280;7822;48.146;11.576;2023-03-20T05:45:18;95396.28;;;14.73;62.59
15444;BME280;7822;48.146;11.576;2023-03-20T05:47:46;95408.38;;;14.74;62.24
15444;BME280;7822;48.146;11.576;2023-03-20T05:50:13;95404.13;;;14.73;62.32
15444;BME280;7822;48.146;11.576;2023-03-20T05:52:41;95403.31;;;14.72;62.29
15444;BME280;7822;48.146;11.576;2023-03-20T05:55:10;95412.78;;;14.73;62.34
15444;BME280;7822;48.146;11.576;2023-03-20T05:57:38;95408.53;;;14.72;62.52
15444;BME280;7822;48.146;11.576;2023-03-20T06:00:07;95417.19;;;14.73;62.30
15444;BME280;7822;48.146;11.576;2023-03-20T06:02:36;95425.97;;;14.72;62.36
15444;BME280;7822;48.146;11.576;2023-03-20T06:05:04;95432.03;;;14.72;61.99
15444;BME280;7822;48.146;11.576;2023-03-20T06:07:31;95429.41;;;14.72;62.34
15444;BME280;7822;48.146;11.576;2023-03-20T06:09:59;95426.81;;;14.72;62.32
15444;BME280;7822;48.146;11.576;2023-03-20T06:12:28;95431.19;;;14.72;62.52
15444;BME280;7822;48.146;11.576;2023-03-20T06:14:56;95429.41;;;14.72;62.35
15444;BME280;7822;48.146;11.576;2023-03-20T06:17:23;95437.09;;;14.74;62.21
15444;BME280;7822;48.146;11.576;2023-03-20T06:19:51;95445.75;;;14.74;62.10
15444;BME280;7822;48.146;11.576;2023-03-20T06:22:19;95447.41;;;14.75;62.41
15444;BME280;7822;48.146;11.576;2023-03-20T06:24:47;95454.28;;;14.76;62.26
15444;BME280;7822;48.146;11.576;2023-03-20T06:27:14;95444.66;;;14.77;62.38
15444;BME280;7822;48.146;11.576;2023-03-20T06:29:43;95457.72;;;14.77;62.26
15444;BME280;7822;48.146;11.576;2023-03-20T06:32:11;95446.44;;;14.76;62.40
15444;BME280;7822;48.146;11.576;2023-03-20T06:34:40;95456.06;;;14.76;62.29
15444;BME280;7822;48.146;11.576;2023-03-20T06:37:07;95460.31;;;14.77;62.31
15444;BME280;7822;48.146;11.576;2023-03-20T06:39:35;95447.28;;;14.77;62.46
15444;BME280;7822;48.146;11.576;2023-03-20T06:42:03;95454.16;;;14.78;61.93
15444;BME280;7822;48.146;11.576;2023-03-20T06:44:30;95449.06;;;14.76;62.02
15444;BME280;7822;48.146;11.576;2023-03-20T06:46:59;95458.53;;;14.77;62.52
15444;BME280;7822;48.146;11.576;2023-03-20T06:49:27;95453.31;;;14.77;62.15
15444;BME280;7822;48.146;11.576;2023-03-20T06:51:55;95455.09;;;14.77;62.13
15444;BME280;7822;48.146;11.576;2023-03-20T06:54:22;95457.72;;;14.77;62.07
15444;BME280;7822;48.146;11.576;2023-03-20T06:56:50;95449.88;;;14.77;62.20
15444;BME280;7822;48.146;11.576;2023-03-20T06:59:18;95453.31;;;14.77;62.45
15444;BME280;7822;48.146;11.576;2023-03-20T07:01:45;95449.06;;;14.76;62.39
15444;BME280;7822;48.146;11.576;2023-03-20T07:04:14;95450.84;;;14.76;62.19
15444;BME280;7822;48.146;11.576;2023-03-20T07:06:42;95448.22;;;14.76;62.28
15444;BME280;7822;48.146;11.576;2023-03-20T07:09:10;95453.44;;;14.76;62.42
15444;BME280;7822;48.146;11.576;2023-03-20T07:11:38;95456.06;;;14.76;62.46
15444;BME280;7822;48.146;11.576;2023-03-20T07:14:05;95457.88;;;14.75;62.28
15444;BME280;7822;48.146;11.576;2023-03-20T07:16:33;95456.06;;;14.76;62.28
15444;BME280;7822;48.146;11.576;2023-03-20T07:19:01;95460.47;;;14.75;62.10
15444;BME280;7822;48.146;11.576;2023-03-20T07:21:30;95467.47;;;14.75;62.29
15444;BME280;7822;48.146;11.576;2023-03-20T07:23:58;95480.53;;;14.75;62.45
15444;BME280;7822;48.146;11.576;2023-03-20T07:26:26;95476.16;;;14.75;62.25
15444;BME280;7822;48.146;11.576;2023-03-20T07:28:54;95484.09;;;14.74;62.34
15444;BME280;7822;48.146;11.576;2023-03-20T07:31:23;95483.97;;;14.75;62.54
15444;BME280;7822;48.146;11.576;2023-03-20T07:33:51;95481.50;;;14.74;62.68
15444;BME280;7822;48.146;11.576;2023-03-20T07:36:19;95485.75;;;14.75;62.40
15444;BME280;7822;48.146;11.576;2023-03-20T07:38:48;95495.38;;;14.74;62.31
15444;BME280;7822;48.146;11.576;2023-03-20T07:41:16;95490.97;;;14.75;62.33
15444;BME280;7822;48.146;11.576;2023-03-20T07:43:43;95494.56;;;14.74;62.18
15444;BME280;7822;48.146;11.576;2023-03-20T07:46:11;95498.81;;;14.75;62.43
15444;BME280;7822;48.146;11.576;2023-03-20T07:48:39;95503.22;;;14.74;62.36
15444;BME280;7822;48.146;11.576;2023-03-20T07:51:06;95498.00;;;14.74;62.41
15444;BME280;7822;48.146;11.576;2023-03-20T07:53:35;95498.00;;;14.74;62.39
15444;BME280;7822;48.146;11.576;2023-03-20T07:56:04;95505.81;;;14.74;62.38
15444;BME280;7822;48.146;11.576;2023-03-20T07:58:32;95498.81;;;14.75;62.23
15444;BME280;7822;48.146;11.576;2023-03-20T08:01:00;95499.66;;;14.75;62.37
15444;BME280;7822;48.146;11.576;2023-03-20T08:03:28;95502.25;;;14.75;62.18
15444;BME280;7822;48.146;11.576;2023-03-20T08:05:57;95497.03;;;14.75;62.46
15444;BME280;7822;48.146;11.576;2023-03-20T08:08:24;95506.50;;;14.76;62.44
15444;BME280;7822;48.146;11.576;2023-03-20T08:10:52;95503.06;;;14.76;62.65
15444;BME280;7822;48.146;11.576;2023-03-20T08:13:21;95507.50;;;14.75;62.30
15444;BME280;7822;48.146;11.576;2023-03-20T08:15:49;95505.66;;;14.76;62.19
15444;BME280;7822;48.146;11.576;2023-03-20T08:18:17;95505.66;;;14.76;62.25
15444;BME280;7822;48.146;11.576;2023-03-20T08:20:45;95503.06;;;14.76;62.37
15444;BME280;7822;48.146;11.576;2023-03-20T08:23:13;95502.94;;;14.77;62.12
15444;BME280;7822;48.146;11.576;2023-03-20T08:25:41;95495.22;;;14.76;62.45
15444;BME280;7822;48.146;11.576;2023-03-20T08:28:08;95495.22;;;14.76;62.24
15444;BME280;7822;48.146;11.576;2023-03-20T08:30:38;95502.13;;;14.77;62.13
15444;BME280;7822;48.146;11.576;2023-03-20T08:33:06;95492.63;;;14.76;62.34
15444;BME280;7822;48.146;11.576;2023-03-20T08:35:33;95487.41;;;14.76;62.25
15444;BME280;7822;48.146;11.576;2023-03-20T08:38:02;95494.28;;;14.77;62.12
15444;BME280;7822;48.146;11.576;2023-03-20T08:40:30;95487.53;;;14.74;62.31
15444;BME280;7822;48.146;11.576;2023-03-20T08:42:58;95493.44;;;14.76;62.37
15444;BME280;7822;48.146;11.576;2023-03-20T08:45:25;95485.63;;;14.76;62.42
15444;BME280;7822;48.146;11.576;2023-03-20T08:47:54;95485.75;;;14.75;62.40
15444;BME280;7822;48.146;11.576;2023-03-20T08:50:22;95483.97;;;14.75;62.67
15444;BME280;7822;48.146;11.576;2023-03-20T08:52:50;95484.78;;;14.76;62.36
15444;BME280;7822;48.146;11.576;2023-03-20T08:55:17;95485.75;;;14.75;62.75
15444;BME280;7822;48.146;11.576;2023-03-20T08:57:45;95489.22;;;14.75;62.54
15444;BME280;7822;48.146;11.576;2023-03-20T09:00:14;95479.72;;;14.74;62.11
15444;BME280;7822;48.146;11.576;2023-03-20T09:02:42;95488.38;;;14.75;62.54
15444;BME280;7822;48.146;11.576;2023-03-20T09:05:11;95494.44;;;14.75;62.43
15444;BME280;7822;48.146;11.576;2023-03-20T09:07:39;95487.53;;;14.74;62.42
15444;BME280;7822;48.146;11.576;2023-03-20T09:10:08;95480.53;;;14.75;62.61
15444;BME280;7822;48.146;11.576;2023-03-20T09:12:36;95488.38;;;14.75;62.23
15444;BME280;7822;48.146;11.576;2023-03-20T09:15:05;95484.94;;;14.74;62.52
15444;BME280;7822;48.146;11.576;2023-03-20T09:17:33;95487.53;;;14.74;62.48
15444;BME280;7822;48.146;11.576;2023-03-20T09:20:01;95491.13;;;14.73;62.42
15444;BME280;7822;48.146;11.576;2023-03-20T09:22:31;95484.94;;;14.74;62.20
15444;BME280;7822;48.146;11.576;2023-03-20T09:24:58;95486.72;;;14.74;62.35
15444;BME280;7822;48.146;11.576;2023-03-20T09:27:26;95491.94;;;14.74;62.32
15444;BME280;7822;48.146;11.576;2023-03-20T09:29:54;95484.94;;;14.74;62.55
15444;BME280;7822;48.146;11.576;2023-03-20T09:32:21;95490.97;;;14.75;62.56
15444;BME280;7822;48.146;11.576;2023-03-20T09:34:49;95489.31;;;14.74;62.32
15444;BME280;7822;48.146;11.576;2023-03-20T09:37:17;95496.22;;;14.75;62.37
15444;BME280;7822;48.146;11.576;2023-03-20T09:39:46;95497.84;;;14.76;62.68
15444;BME280;7822;48.146;11.576;2023-03-20T09:42:25;95491.81;;;14.75;62.77
15444;BME280;7822;48.146;11.576;2023-03-20T09:45:02;95485.63;;;14.76;62.22
15444;BME280;7822;48.146;11.576;2023-03-20T09:47:37;95483.00;;;14.76;62.50
15444;BME280;7822;48.146;11.576;2023-03-20T09:50:13;95489.88;;;14.77;62.45
15444;BME280;7822;48.146;11.576;2023-03-20T09:52:53;95486.44;;;14.77;62.35
15444;BME280;7822;48.146;11.576;2023-03-20T09:55:29;95486.44;;;14.77;62.53
15444;BME280;7822;48.146;11.576;2023-03-20T09:58:02;95485.63;;;14.76;62.13
15444;BME280;7822;48.146;11.576;2023-03-20T10:00:33;95483.00;;;14.76;62.16
15444;BME280;7822;48.146;11.576;2023-03-20T10:03:04;95482.06;;;14.77;62.34
15444;BME280;7822;48.146;11.576;2023-03-20T10:05:35;95482.16;;;14.76;62.42
15444;BME280;7822;48.146;11.576;2023-03-20T10:08:06;95482.16;;;14.76;62.29
15444;BME280;7822;48.146;11.576;2023-03-20T10:10:49;95476.94;;;14.76;62.30
15444;BME280;7822;48.146;11.576;2023-03-20T10:13:33;95490.00;;;14.76;62.08
15444;BME280;7822;48.146;11.576;2023-03-20T10:16:11;95482.16;;;14.76;62.61
15444;BME280;7822;48.146;11.576;2023-03-20T10:18:47;95482.16;;;14.76;62.42
15444;BME280;7822;48.146;11.576;2023-03-20T10:21:17;95478.75;;;14.75;62.48
15444;BME280;7822;48.146;11.576;2023-03-20T10:23:56;95476.16;;;14.75;62.46
15444;BME280;7822;48.146;11.576;2023-03-20T10:26:30;95476.16;;;14.75;62.46
15444;BME280;7822;48.146;11.576;2023-03-20T10:29:01;95480.53;;;14.75;62.58
15444;BME280;7822;48.146;11.576;2023-03-20T10:31:39;95476.94;;;14.76;62.46
15444;BME280;7822;48.146;11.576;2023-03-20T10:34:24;95471.88;;;14.74;62.55
15444;BME280;7822;48.146;11.576;2023-03-20T10:37:02;95469.25;;;14.74;62.64
15444;BME280;7822;48.146;11.576;2023-03-20T10:39:38;95478.75;;;14.75;62.36
15444;BME280;7822;48.146;11.576;2023-03-20T10:42:19;95464.03;;;14.74;62.60
15444;BME280;7822;48.146;11.576;2023-03-20T10:44:53;95470.09;;;14.75;62.40
15444;BME280;7822;48.146;11.576;2023-03-20T10:47:25;95451.97;;;14.73;62.77
15444;BME280;7822;48.146;11.576;2023-03-20T10:49:57;95456.22;;;14.74;62.51
15444;BME280;7822;48.146;11.576;2023-03-20T10:52:30;95455.38;;;14.74;62.27
15444;BME280;7822;48.146;11.576;2023-03-20T10:55:00;95446.75;;;14.73;62.35
15444;BME280;7822;48.146;11.576;2023-03-20T10:57:34;95450.16;;;14.74;62.43
15444;BME280;7822;48.146;11.576;2023-03-20T11:00:06;95442.31;;;14.74;62.49
15444;BME280;7822;48.146;11.576;2023-03-20T11:02:39;95439.72;;;14.74;62.54
15444;BME280;7822;48.146;11.576;2023-03-20T11:05:20;95440.69;;;14.73;62.54
15444;BME280;7822;48.146;11.576;2023-03-20T11:07:49;95441.53;;;14.73;62.71
15444;BME280;7822;48.146;11.576;2023-03-20T11:10:19;95437.09;;;14.74;62.37
15444;BME280;7822;48.146;11.576;2023-03-20T11:12:53;95431.88;;;14.74;62.67
15444;BME280;7822;48.146;11.576;2023-03-20T11:15:23;95435.31;;;14.74;62.79
15444;BME280;7822;48.146;11.576;2023-03-20T11:17:56;95435.31;;;14.74;62.82
15444;BME280;7822;48.146;11.576;2023-03-20T11:20:25;95437.94;;;14.74;62.54
15444;BME280;7822;48.146;11.576;2023-03-20T11:22:58;95434.47;;;14.74;62.38
15444;BME280;7822;48.146;11.576;2023-03-20T11:25:29;95434.47;;;14.74;62.56
15444;BME280;7822;48.146;11.576;2023-03-20T11:31:05;95431.88;;;14.74;62.53
15444;BME280;7822;48.146;11.576;2023-03-20T11:33:36;95425.69;;;14.75;62.61
15444;BME280;7822;48.146;11.576;2023-03-20T11:36:10;95429.94;;;14.76;62.54
15444;BME280;7822;48.146;11.576;2023-03-20T11:38:43;95423.09;;;14.75;62.47
15444;BME280;7822;48.146;11.576;2023-03-20T11:41:16;95426.53;;;14.75;62.67
15444;BME280;7822;48.146;11.576;2023-03-20T11:43:44;95418.69;;;14.75;62.40
15444;BME280;7822;48.146;11.576;2023-03-20T11:46:13;95421.31;;;14.75;62.81
15444;BME280;7822;48.146;11.576;2023-03-20T11:48:43;95417.88;;;14.75;62.41
15444;BME280;7822;48.146;11.576;2023-03-20T11:51:14;95414.41;;;14.74;62.80
15444;BME280;7822;48.146;11.576;2023-03-20T11:53:57;95416.09;;;14.75;62.53
15444;BME280;7822;48.146;11.576;2023-03-20T11:56:28;95408.25;;;14.75;62.56
15444;BME280;7822;48.146;11.576;2023-03-20T11:58:58;95409.19;;;14.74;62.44
15444;BME280;7822;48.146;11.576;2023-03-20T12:01:29;95410.03;;;14.75;62.53
15444;BME280;7822;48.146;11.576;2023-03-20T12:04:04;95413.47;;;14.75;62.63
15444;BME280;7822;48.146;11.576;2023-03-20T12:06:41;95418.69;;;14.75;62.81
15444;BME280;7822;48.146;11.576;2023-03-20T12:09:22;95416.09;;;14.75;62.55
15444;BME280;7822;48.146;11.576;2023-03-20T12:11:53;95410.03;;;14.75;62.73
15444;BME280;7822;48.146;11.576;2023-03-20T12:14:31;95410.97;;;14.74;62.80
15444;BME280;7822;48.146;11.576;2023-03-20T12:17:19;95405.75;;;14.74;62.48
15444;BME280;7822;48.146;11.576;2023-03-20T12:19:53;95412.63;;;14.75;62.32
15444;BME280;7822;48.146;11.576;2023-03-20T12:22:25;95412.78;;;14.73;62.48
15444;BME280;7822;48.146;11.576;2023-03-20T12:25:00;95403.16;;;14.74;62.80
15444;BME280;7822;48.146;11.576;2023-03-20T12:27:34;95407.41;;;14.75;62.75
15444;BME280;7822;48.146;11.576;2023-03-20T12:30:05;95408.38;;;14.74;62.41
15444;BME280;7822;48.146;11.576;2023-03-20T12:32:43;95413.47;;;14.75;62.55
15444;BME280;7822;48.146;11.576;2023-03-20T12:35:16;95406.59;;;14.74;62.43
15444;BME280;7822;48.146;11.576;2023-03-20T12:37:46;95403.97;;;14.74;62.43
15444;BME280;7822;48.146;11.576;2023-03-20T12:40:15;95399.75;;;14.73;62.68
15444;BME280;7822;48.146;11.576;2023-03-20T12:42:54;95403.97;;;14.74;62.67
15444;BME280;7822;48.146;11.576;2023-03-20T12:45:26;95404.97;;;14.73;62.61
15444;BME280;7822;48.146;11.576;2023-03-20T12:48:13;95406.75;;;14.73;62.53
15444;BME280;7822;48.146;11.576;2023-03-20T12:50:48;95396.28;;;14.73;62.76
15444;BME280;7822;48.146;11.576;2023-03-20T12:53:36;95402.34;;;14.73;62.55
15444;BME280;7822;48.146;11.576;2023-03-20T12:56:15;95404.13;;;14.73;62.70
15444;BME280;7822;48.146;11.576;2023-03-20T12:58:51;95406.59;;;14.74;62.79
15444;BME280;7822;48.146;11.576;2023-03-20T13:01:27;95407.41;;;14.75;62.53
15444;BME280;7822;48.146;11.576;2023-03-20T13:04:26;95410.03;;;14.75;62.90
15444;BME280;7822;48.146;11.576;2023-03-20T13:07:06;95412.63;;;14.75;62.67
15444;BME280;7822;48.146;11.576;2023-03-20T13:09:57;95409.88;;;14.76;62.79
15444;BME280;7822;48.146;11.576;2023-03-20T13:12:36;95407.25;;;14.76;62.73
15444;BME280;7822;48.146;11.576;2023-03-20T13:15:17;95410.72;;;14.77;62.52
15444;BME280;7822;48.146;11.576;2023-03-20T13:17:51;95408.09;;;14.77;62.36
15444;BME280;7822;48.146;11.576;2023-03-20T13:20:25;95396.00;;;14.76;62.61
15444;BME280;7822;48.146;11.576;2023-03-20T13:23:09;95395.03;;;14.77;62.62
15444;BME280;7822;48.146;11.576;2023-03-20T13:25:50;95395.88;;;14.77;62.53
15444;BME280;7822;48.146;11.576;2023-03-20T13:28:25;95388.88;;;14.78;62.69